createdAt,value
2023-01-23T00:01:32.938Z,14.20
2023-01-23T00:04:00.803Z,14.57
2023-01-23T00:06:28.417Z,14.70
2023-01-23T00:08:56.817Z,15.07
2023-01-23T00:11:25.227Z,13.60
2023-01-23T00:13:52.806Z,14.63
2023-01-23T00:16:21.754Z,14.70
2023-01-23T00:18:49.809Z,13.87
2023-01-23T00:21:18.349Z,14.00
2023-01-23T00:23:46.374Z,14.13
2023-01-23T00:26:15.807Z,13.53
2023-01-23T00:28:43.845Z,13.60
2023-01-23T00:31:12.998Z,12.63
2023-01-23T00:33:40.954Z,13.30
2023-01-23T00:36:08.437Z,12.33
2023-01-23T00:38:35.796Z,13.70
2023-01-23T00:41:03.077Z,12.63
2023-01-23T00:43:30.807Z,13.33
2023-01-23T00:45:58.256Z,12.63
2023-01-23T00:48:25.468Z,13.67
2023-01-23T00:50:52.962Z,13.80
2023-01-23T00:53:20.219Z,14.40
2023-01-23T00:55:47.558Z,14.13
2023-01-23T00:58:14.695Z,13.83
2023-01-23T01:00:41.863Z,14.53
2023-01-23T01:03:09.489Z,14.33
2023-01-23T01:05:36.868Z,14.53
2023-01-23T01:08:04.320Z,14.17
2023-01-23T01:10:32.913Z,14.90
2023-01-23T01:13:01.237Z,14.50
2023-01-23T01:15:29.671Z,14.13
2023-01-23T01:17:57.142Z,14.20
2023-01-23T01:20:26.048Z,13.60
2023-01-23T01:22:54.116Z,14.40
2023-01-23T01:25:21.632Z,14.33
2023-01-23T01:27:49.224Z,14.67
2023-01-23T01:30:17.632Z,14.53
2023-01-23T01:32:45.428Z,14.50
2023-01-23T01:35:13.149Z,13.93
2023-01-23T01:37:41.837Z,14.77
2023-01-23T01:40:10.359Z,13.87
2023-01-23T01:42:39.988Z,14.40
2023-01-23T01:45:07.655Z,13.90
2023-01-23T01:47:35.046Z,14.40
2023-01-23T01:50:03.383Z,13.90
2023-01-23T01:52:30.531Z,14.33
2023-01-23T01:55:04.720Z,14.20
2023-01-23T01:57:40.637Z,14.03
2023-01-23T02:00:10.386Z,13.80
2023-01-23T02:02:45.947Z,13.37
2023-01-23T02:05:15.421Z,14.67
2023-01-23T02:07:47.943Z,15.33
2023-01-23T02:10:16.695Z,15.17
2023-01-23T02:12:47.801Z,13.83
2023-01-23T02:15:15.679Z,14.97
2023-01-23T02:17:43.123Z,15.87
2023-01-23T02:20:21.668Z,15.67
2023-01-23T02:23:02.618Z,15.23
2023-01-23T02:25:37.331Z,15.30
2023-01-23T02:28:04.918Z,13.83
2023-01-23T02:30:32.167Z,13.57
2023-01-23T02:33:13.050Z,15.43
2023-01-23T02:35:40.321Z,13.93
2023-01-23T02:38:08.451Z,12.90
2023-01-23T02:40:37.288Z,14.67
2023-01-23T02:43:09.801Z,14.60
2023-01-23T02:45:37.333Z,14.87
2023-01-23T02:48:06.122Z,13.23
2023-01-23T02:50:33.277Z,14.80
2023-01-23T02:53:00.452Z,14.80
2023-01-23T02:55:30.197Z,15.07
2023-01-23T02:58:20.320Z,14.07
2023-01-23T03:00:47.839Z,13.27
2023-01-23T03:03:16.081Z,13.67
2023-01-23T03:05:43.328Z,13.57
2023-01-23T03:08:10.554Z,13.03
2023-01-23T03:10:37.732Z,12.43
2023-01-23T03:13:07.469Z,13.23
2023-01-23T03:15:35.432Z,13.33
2023-01-23T03:18:02.641Z,13.30
2023-01-23T03:20:29.933Z,14.10
2023-01-23T03:22:57.394Z,14.27
2023-01-23T03:25:24.563Z,13.60
2023-01-23T03:27:51.711Z,14.57
2023-01-23T03:30:22.155Z,13.20
2023-01-23T03:32:50.039Z,14.10
2023-01-23T03:35:18.139Z,13.63
2023-01-23T03:37:46.406Z,13.70
2023-01-23T03:40:36.805Z,13.03
2023-01-23T03:43:04.115Z,11.53
2023-01-23T03:45:31.557Z,12.70
2023-01-23T03:47:59.004Z,12.90
2023-01-23T03:50:26.233Z,14.10
2023-01-23T03:52:53.395Z,12.20
2023-01-23T03:55:20.541Z,12.67
2023-01-23T03:57:48.001Z,12.63
2023-01-23T04:00:17.027Z,13.33
2023-01-23T04:02:44.415Z,12.90
2023-01-23T04:05:11.612Z,13.27
2023-01-23T04:07:38.795Z,12.87
2023-01-23T04:10:06.199Z,12.57
2023-01-23T04:12:33.374Z,12.57
2023-01-23T04:15:00.515Z,12.70
2023-01-23T04:17:27.719Z,12.80
2023-01-23T04:19:54.921Z,12.73
2023-01-23T04:22:22.108Z,12.10
2023-01-23T04:24:49.389Z,12.90
2023-01-23T04:27:16.613Z,12.33
2023-01-23T04:29:43.782Z,13.07
2023-01-23T04:32:10.959Z,12.90
2023-01-23T04:34:38.134Z,13.43
2023-01-23T04:37:05.283Z,12.93
2023-01-23T04:39:32.979Z,12.47
2023-01-23T04:42:00.245Z,12.60
2023-01-23T04:44:27.391Z,13.90
2023-01-23T04:46:55.050Z,12.40
2023-01-23T04:49:23.069Z,12.97
2023-01-23T04:51:50.482Z,13.73
2023-01-23T04:54:18.398Z,13.57
2023-01-23T04:56:45.745Z,13.20
2023-01-23T04:59:13.349Z,12.80
2023-01-23T05:01:40.612Z,13.10
2023-01-23T05:04:07.881Z,12.27
2023-01-23T05:06:35.181Z,12.73
2023-01-23T05:09:02.355Z,13.60
2023-01-23T05:11:29.525Z,12.47
2023-01-23T05:13:56.692Z,12.00
2023-01-23T05:16:24.177Z,12.00
2023-01-23T05:18:51.315Z,12.07
2023-01-23T05:21:18.499Z,14.70
2023-01-23T05:23:45.695Z,12.53
2023-01-23T05:26:12.870Z,12.87
2023-01-23T05:28:40.100Z,12.67
2023-01-23T05:31:07.341Z,12.53
2023-01-23T05:33:34.592Z,12.50
2023-01-23T05:36:02.074Z,12.97
2023-01-23T05:38:29.275Z,12.63
2023-01-23T05:40:56.439Z,13.73
2023-01-23T05:43:23.620Z,12.50
2023-01-23T05:45:50.847Z,13.17
2023-01-23T05:48:18.040Z,13.63
2023-01-23T05:50:45.176Z,12.97
2023-01-23T05:53:12.384Z,13.03
2023-01-23T05:55:39.920Z,13.80
2023-01-23T05:58:07.568Z,13.23
2023-01-23T06:00:35.151Z,14.00
2023-01-23T06:03:02.340Z,14.90
2023-01-23T06:05:29.701Z,13.27
2023-01-23T06:07:56.891Z,12.90
2023-01-23T06:10:24.124Z,13.97
2023-01-23T06:12:51.356Z,14.07
2023-01-23T06:15:18.571Z,13.30
2023-01-23T06:17:45.825Z,14.67
2023-01-23T06:20:13.189Z,13.93
2023-01-23T06:22:40.331Z,14.07
2023-01-23T06:25:07.690Z,14.30
2023-01-23T06:27:34.886Z,13.40
2023-01-23T06:30:02.040Z,15.27
2023-01-23T06:32:29.265Z,12.93
2023-01-23T06:34:56.467Z,15.07
2023-01-23T06:37:23.604Z,14.33
2023-01-23T06:39:50.843Z,13.27
2023-01-23T06:42:18.645Z,15.47
2023-01-23T06:44:45.898Z,14.53
2023-01-23T06:47:13.091Z,14.63
2023-01-23T06:49:40.527Z,14.67
2023-01-23T06:52:07.742Z,13.77
2023-01-23T06:54:34.950Z,15.17
2023-01-23T06:57:02.120Z,14.50
2023-01-23T06:59:29.295Z,14.40
2023-01-23T07:01:56.591Z,14.23
2023-01-23T07:04:23.798Z,14.70
2023-01-23T07:06:51.024Z,15.23
2023-01-23T07:09:18.272Z,14.27
2023-01-23T07:11:45.458Z,14.40
2023-01-23T07:14:12.613Z,14.30
2023-01-23T07:16:39.784Z,14.07
2023-01-23T07:19:06.992Z,14.57
2023-01-23T07:21:34.510Z,14.10
2023-01-23T07:24:02.044Z,14.40
2023-01-23T07:26:29.224Z,15.20
2023-01-23T07:28:56.661Z,14.70
2023-01-23T07:31:24.033Z,14.10
2023-01-23T07:33:51.844Z,14.60
2023-01-23T07:36:19.149Z,14.87
2023-01-23T07:38:46.451Z,14.20
2023-01-23T07:41:13.627Z,15.67
2023-01-23T07:43:40.973Z,17.03
2023-01-23T07:46:09.655Z,15.77
2023-01-23T07:48:37.652Z,15.10
2023-01-23T07:51:05.187Z,15.83
2023-01-23T07:53:32.840Z,15.27
2023-01-23T07:56:00.125Z,13.90
2023-01-23T07:58:27.484Z,15.27
2023-01-23T08:00:54.680Z,15.93
2023-01-23T08:03:21.888Z,15.93
2023-01-23T08:05:49.955Z,16.00
2023-01-23T08:08:17.253Z,15.60
2023-01-23T08:10:44.446Z,17.97
2023-01-23T08:13:12.103Z,16.13
2023-01-23T08:15:39.386Z,15.33
2023-01-23T08:18:06.895Z,16.73
2023-01-23T08:20:34.200Z,16.47
2023-01-23T08:23:02.409Z,17.10
2023-01-23T08:25:30.034Z,16.37
2023-01-23T08:27:57.481Z,16.93
2023-01-23T08:30:24.643Z,16.63
2023-01-23T08:32:51.791Z,15.97
2023-01-23T08:35:19.091Z,16.27
2023-01-23T08:37:46.333Z,16.00
2023-01-23T08:40:13.651Z,17.20
2023-01-23T08:42:40.975Z,16.60
2023-01-23T08:45:08.510Z,16.00
2023-01-23T08:47:36.778Z,16.03
2023-01-23T08:50:05.315Z,15.93
2023-01-23T08:52:34.732Z,16.57
2023-01-23T08:55:02.040Z,16.63
2023-01-23T08:57:29.391Z,16.13
2023-01-23T08:59:56.727Z,16.67
2023-01-23T09:02:24.154Z,18.07
2023-01-23T09:04:51.516Z,16.47
2023-01-23T09:07:18.903Z,17.30
2023-01-23T09:09:46.527Z,15.73
2023-01-23T09:12:13.682Z,16.60
2023-01-23T09:14:40.855Z,16.53
2023-01-23T09:17:08.066Z,17.30
2023-01-23T09:19:35.391Z,17.07
2023-01-23T09:22:02.818Z,17.30
2023-01-23T09:24:30.231Z,16.37
2023-01-23T09:26:57.627Z,17.30
2023-01-23T09:29:24.871Z,18.17
2023-01-23T09:31:52.105Z,18.13
2023-01-23T09:34:19.764Z,18.17
2023-01-23T09:36:47.064Z,16.23
2023-01-23T09:39:14.236Z,18.07
2023-01-23T09:41:41.858Z,17.80
2023-01-23T09:44:16.527Z,17.40
2023-01-23T09:46:52.777Z,17.77
2023-01-23T09:49:31.359Z,18.17
2023-01-23T09:51:58.500Z,16.93
2023-01-23T09:54:28.522Z,18.73
2023-01-23T09:56:56.531Z,18.70
2023-01-23T09:59:30.058Z,18.53
2023-01-23T10:01:57.311Z,19.67
2023-01-23T10:04:24.915Z,18.87
2023-01-23T10:07:01.177Z,18.63
2023-01-23T10:09:37.165Z,20.07
2023-01-23T10:12:21.171Z,19.30
2023-01-23T10:15:00.785Z,19.43
2023-01-23T10:17:27.968Z,20.33
2023-01-23T10:20:07.010Z,19.67
2023-01-23T10:23:04.676Z,18.23
2023-01-23T10:25:35.169Z,19.53
2023-01-23T10:28:17.394Z,18.73
2023-01-23T10:30:47.983Z,17.87
2023-01-23T10:33:16.994Z,19.23
2023-01-23T10:35:44.138Z,18.53
2023-01-23T10:38:28.011Z,18.40
2023-01-23T10:41:13.751Z,19.47
2023-01-23T10:43:44.734Z,20.33
2023-01-23T10:46:13.843Z,18.97
2023-01-23T10:48:44.309Z,19.90
2023-01-23T10:51:27.000Z,20.13
2023-01-23T10:54:07.122Z,18.43
2023-01-23T10:56:35.726Z,17.77
2023-01-23T10:59:03.143Z,18.27
2023-01-23T11:01:32.257Z,18.63
2023-01-23T11:04:10.157Z,19.63
2023-01-23T11:06:37.483Z,19.47
2023-01-23T11:09:05.230Z,18.67
2023-01-23T11:11:33.561Z,19.63
2023-01-23T11:14:09.099Z,19.83
2023-01-23T11:16:36.435Z,18.70
2023-01-23T11:19:09.658Z,19.47
2023-01-23T11:21:38.035Z,19.30
2023-01-23T11:24:39.149Z,20.07
2023-01-23T11:27:13.823Z,19.00
2023-01-23T11:29:46.874Z,19.97
2023-01-23T11:32:14.652Z,20.33
2023-01-23T11:34:45.415Z,21.07
2023-01-23T11:37:25.246Z,19.87
2023-01-23T11:39:55.447Z,19.03
2023-01-23T11:42:27.238Z,20.37
2023-01-23T11:44:56.415Z,20.80
2023-01-23T11:47:26.337Z,19.97
2023-01-23T11:50:09.592Z,19.13
2023-01-23T11:52:44.097Z,21.70
2023-01-23T11:55:11.372Z,20.73
2023-01-23T11:57:44.933Z,19.87
2023-01-23T12:00:12.114Z,21.30
2023-01-23T12:02:42.385Z,20.27
2023-01-23T12:05:12.624Z,20.47
2023-01-23T12:07:52.493Z,21.03
2023-01-23T12:10:19.667Z,20.17
2023-01-23T12:13:02.299Z,21.83
2023-01-23T12:15:59.484Z,19.77
2023-01-23T12:18:40.420Z,20.20
2023-01-23T12:21:20.845Z,20.90
2023-01-23T12:24:09.709Z,21.07
2023-01-23T12:26:39.081Z,21.67
2023-01-23T12:29:22.388Z,21.60
2023-01-23T12:31:49.864Z,20.17
2023-01-23T12:34:30.109Z,21.13
2023-01-23T12:37:22.353Z,19.80
2023-01-23T12:40:12.052Z,19.97
2023-01-23T12:42:44.450Z,21.27
2023-01-23T12:45:11.564Z,21.07
2023-01-23T12:47:44.310Z,20.50
2023-01-23T12:50:22.457Z,22.00
2023-01-23T12:53:01.594Z,21.27
2023-01-23T12:55:34.098Z,21.80
2023-01-23T12:58:09.017Z,22.83
2023-01-23T13:00:40.002Z,22.70
2023-01-23T13:03:27.324Z,23.47
2023-01-23T13:06:09.800Z,22.97
2023-01-23T13:09:00.086Z,22.53
2023-01-23T13:11:56.995Z,22.60
2023-01-23T13:14:43.482Z,21.73
2023-01-23T13:17:31.629Z,21.50
2023-01-23T13:20:50.199Z,22.17
2023-01-23T13:23:34.055Z,22.87
2023-01-23T13:26:16.803Z,22.07
2023-01-23T13:28:46.449Z,21.80
2023-01-23T13:31:33.743Z,23.17
2023-01-23T13:34:14.886Z,22.63
2023-01-23T13:36:45.690Z,21.93
2023-01-23T13:39:22.535Z,22.70
2023-01-23T13:42:09.736Z,22.57
2023-01-23T13:44:41.998Z,22.57
2023-01-23T14:21:47.456Z,22.33
2023-01-23T14:24:22.305Z,21.87
2023-01-23T14:26:51.002Z,23.47
2023-01-23T14:29:24.641Z,24.10
2023-01-23T14:31:52.496Z,23.40
2023-01-23T14:34:21.228Z,23.83
2023-01-23T14:36:51.201Z,24.17
2023-01-23T14:39:19.913Z,23.73
2023-01-23T14:41:47.743Z,23.93
2023-01-23T14:44:50.148Z,23.47
2023-01-23T14:47:19.213Z,22.63
2023-01-23T14:49:48.242Z,23.70
2023-01-23T14:52:23.338Z,24.23
2023-01-23T14:54:54.198Z,24.10
2023-01-23T14:57:23.626Z,22.77
2023-01-23T14:59:51.613Z,22.83
2023-01-23T15:02:33.882Z,22.33
2023-01-23T15:05:27.433Z,24.60
2023-01-23T15:08:03.712Z,22.43
2023-01-23T15:10:33.456Z,23.50
2023-01-23T15:13:05.246Z,23.60
2023-01-23T15:15:33.520Z,25.67
2023-01-23T15:18:01.873Z,26.27
2023-01-23T15:20:30.526Z,25.97
2023-01-23T15:22:58.007Z,25.63
2023-01-23T15:25:29.533Z,23.93
2023-01-23T15:27:56.754Z,23.97
2023-01-23T15:30:49.926Z,23.63
2023-01-23T15:33:24.435Z,25.27
2023-01-23T15:35:51.708Z,25.37
2023-01-23T15:38:18.917Z,25.43
2023-01-23T15:40:46.066Z,25.50
2023-01-23T15:43:14.047Z,26.60
2023-01-23T15:45:41.593Z,25.13
2023-01-23T15:48:08.822Z,27.17
2023-01-23T15:50:36.012Z,27.00
2023-01-23T15:53:03.230Z,27.17
2023-01-23T15:55:30.489Z,25.67
2023-01-23T15:57:57.760Z,27.37
2023-01-23T16:00:26.899Z,23.93
2023-01-23T16:02:57.059Z,26.73
2023-01-23T16:05:29.423Z,27.40
2023-01-23T16:07:57.826Z,25.87
2023-01-23T16:10:26.675Z,27.13
2023-01-23T16:12:55.502Z,26.90
2023-01-23T16:15:23.951Z,26.07
2023-01-23T16:17:51.228Z,26.27
2023-01-23T16:20:20.037Z,26.63
2023-01-23T16:22:49.774Z,27.37
2023-01-23T16:25:38.037Z,26.30
2023-01-23T16:28:19.851Z,27.00
2023-01-23T16:30:47.755Z,28.93
2023-01-23T16:33:15.247Z,26.47
2023-01-23T16:35:43.061Z,26.57
2023-01-23T16:38:19.606Z,26.50
2023-01-23T16:40:47.156Z,28.10
2023-01-23T16:43:14.429Z,28.63
2023-01-23T16:45:41.578Z,29.50
2023-01-23T16:48:12.951Z,28.67
2023-01-23T16:50:44.517Z,29.73
2023-01-23T16:53:21.629Z,28.50
2023-01-23T16:55:48.874Z,27.83
2023-01-23T16:58:20.227Z,27.80
2023-01-23T17:00:47.574Z,27.90
2023-01-23T17:03:21.550Z,27.30
2023-01-23T17:05:48.952Z,27.00
2023-01-23T17:08:20.136Z,27.30
2023-01-23T17:10:48.568Z,28.47
2023-01-23T17:13:17.188Z,27.77
2023-01-23T17:15:44.523Z,28.47
2023-01-23T17:18:31.978Z,27.63
2023-01-23T17:20:59.566Z,25.97
2023-01-23T17:23:27.332Z,28.00
2023-01-23T17:26:00.882Z,26.83
2023-01-23T17:28:28.862Z,27.27
2023-01-23T17:30:56.436Z,27.43
2023-01-23T17:33:24.718Z,27.07
2023-01-23T17:35:52.516Z,27.63
2023-01-23T17:38:23.384Z,27.10
2023-01-23T17:40:50.959Z,29.50
2023-01-23T17:43:19.472Z,28.47
2023-01-23T17:45:48.192Z,27.93
2023-01-23T17:48:16.962Z,27.43
2023-01-23T17:50:45.770Z,28.17
2023-01-23T17:53:14.116Z,28.33
2023-01-23T17:55:43.575Z,28.47
2023-01-23T17:58:10.884Z,27.90
2023-01-23T18:00:39.656Z,27.47
2023-01-23T18:03:12.519Z,28.63
2023-01-23T18:05:39.854Z,30.10
2023-01-23T18:08:07.407Z,26.63
2023-01-23T18:10:35.158Z,29.23
2023-01-23T18:13:05.423Z,26.77
2023-01-23T18:15:52.698Z,28.37
2023-01-23T18:18:23.572Z,28.00
2023-01-23T18:20:55.719Z,27.60
2023-01-23T18:23:24.286Z,29.13
2023-01-23T18:25:58.980Z,28.47
2023-01-23T18:28:26.279Z,29.27
2023-01-23T18:31:17.055Z,29.77
2023-01-23T18:33:48.138Z,29.73
2023-01-23T18:36:35.427Z,28.33
2023-01-23T18:39:17.984Z,29.70
2023-01-23T18:41:56.398Z,30.20
2023-01-23T18:44:27.554Z,29.40
2023-01-23T18:46:54.871Z,27.77
2023-01-23T18:49:32.443Z,27.70
2023-01-23T18:52:08.914Z,29.77
2023-01-23T18:54:36.388Z,28.93
2023-01-23T18:57:18.773Z,29.97
2023-01-23T18:59:51.065Z,27.30
2023-01-23T19:02:27.709Z,28.77
2023-01-23T19:04:58.337Z,28.37
2023-01-23T19:07:26.031Z,29.50
2023-01-23T19:09:53.665Z,29.50
2023-01-23T19:12:45.047Z,29.83
2023-01-23T19:15:25.849Z,29.13
2023-01-23T19:17:59.162Z,28.97
2023-01-23T19:20:41.656Z,30.27
2023-01-23T19:23:15.030Z,28.50
2023-01-23T19:25:45.627Z,29.60
2023-01-23T19:28:13.547Z,29.10
2023-01-23T19:30:42.587Z,29.13
2023-01-23T19:33:16.090Z,30.20
2023-01-23T19:35:44.302Z,29.33
2023-01-23T19:38:11.999Z,29.43
2023-01-23T19:40:40.055Z,30.23
2023-01-23T19:43:14.512Z,31.50
2023-01-23T19:45:42.769Z,30.60
2023-01-23T19:48:10.181Z,28.60
2023-01-23T19:50:37.701Z,30.70
2023-01-23T19:53:05.175Z,30.67
2023-01-23T19:55:38.502Z,31.73
2023-01-23T19:58:06.035Z,31.63
2023-01-23T20:00:36.026Z,31.40
2023-01-23T20:03:05.119Z,33.20
2023-01-23T20:05:32.721Z,30.87
2023-01-23T20:08:01.129Z,31.10
2023-01-23T20:10:28.759Z,31.40
2023-01-23T20:12:56.785Z,31.60
2023-01-23T20:15:26.079Z,30.50
2023-01-23T20:17:53.879Z,28.80
2023-01-23T20:20:21.857Z,29.83
2023-01-23T20:22:49.478Z,27.37
2023-01-23T20:25:18.625Z,29.97
2023-01-23T20:27:46.436Z,30.30
2023-01-23T20:30:15.283Z,27.90
2023-01-23T20:32:43.286Z,27.80
2023-01-23T20:35:10.918Z,27.43
2023-01-23T20:37:38.510Z,26.83
2023-01-23T20:40:08.575Z,27.77
2023-01-23T20:42:36.131Z,27.57
2023-01-23T20:45:03.771Z,27.00
2023-01-23T20:47:31.239Z,27.73
2023-01-23T20:49:58.782Z,26.50
2023-01-23T20:52:44.937Z,27.87
2023-01-23T20:55:12.468Z,26.07
2023-01-23T20:57:58.656Z,26.27
2023-01-23T21:00:26.193Z,27.90
2023-01-23T21:02:53.752Z,25.90
2023-01-23T21:05:21.440Z,25.53
2023-01-23T21:07:49.030Z,26.10
2023-01-23T21:10:16.743Z,26.60
2023-01-23T21:12:44.188Z,26.50
2023-01-23T21:15:11.702Z,26.80
2023-01-23T21:17:39.797Z,25.47
2023-01-23T21:20:07.515Z,23.97
2023-01-23T21:22:35.532Z,25.03
2023-01-23T21:25:03.412Z,23.87
2023-01-23T21:27:30.755Z,26.40
2023-01-23T21:29:58.120Z,24.17
2023-01-23T21:32:25.420Z,24.80
2023-01-23T21:34:52.705Z,24.97
2023-01-23T21:37:20.257Z,25.03
2023-01-23T21:39:47.576Z,26.17
2023-01-23T21:42:14.791Z,26.77
2023-01-23T21:44:41.919Z,26.60
2023-01-23T21:47:09.088Z,24.83
2023-01-23T21:49:36.311Z,25.00
2023-01-23T21:52:03.748Z,26.83
2023-01-23T21:54:32.123Z,25.60
2023-01-23T21:56:59.274Z,23.47
2023-01-23T21:59:26.453Z,24.17
2023-01-23T22:01:53.812Z,24.03
2023-01-23T22:04:22.588Z,23.83
2023-01-23T22:06:54.051Z,24.37
2023-01-23T22:09:21.896Z,23.50
2023-01-23T22:11:49.383Z,25.27
2023-01-23T22:14:17.474Z,25.40
2023-01-23T22:16:49.125Z,25.53
2023-01-23T22:19:18.764Z,26.83
2023-01-23T22:21:46.987Z,25.03
2023-01-23T22:24:14.835Z,24.83
2023-01-23T22:26:42.641Z,24.23
2023-01-23T22:29:09.930Z,25.67
2023-01-23T22:31:37.240Z,26.13
2023-01-23T22:34:04.477Z,26.83
2023-01-23T22:36:31.635Z,25.30
2023-01-23T22:38:58.824Z,27.17
2023-01-23T22:41:26.154Z,26.93
2023-01-23T22:43:55.465Z,26.37
2023-01-23T22:46:23.077Z,27.93
2023-01-23T22:48:51.437Z,26.80
2023-01-23T22:51:19.964Z,26.77
2023-01-23T22:53:47.231Z,27.30
2023-01-23T22:56:15.773Z,26.80
2023-01-23T22:58:49.617Z,28.40
2023-01-23T23:01:17.505Z,26.90
2023-01-23T23:03:45.233Z,26.90
2023-01-23T23:06:13.639Z,28.87
2023-01-23T23:08:41.237Z,25.37
2023-01-23T23:11:10.548Z,26.90
2023-01-23T23:13:38.859Z,27.10
2023-01-23T23:16:06.896Z,26.73
2023-01-23T23:18:34.306Z,29.07
2023-01-23T23:21:02.318Z,26.63
2023-01-23T23:23:29.545Z,27.03
2023-01-23T23:25:56.917Z,27.77
2023-01-23T23:28:25.371Z,28.90
2023-01-23T23:30:52.588Z,27.57
2023-01-23T23:33:19.800Z,26.90
2023-01-23T23:35:47.391Z,27.47
2023-01-23T23:38:14.824Z,27.47
2023-01-23T23:40:42.341Z,25.27
2023-01-23T23:43:09.778Z,26.40
2023-01-23T23:45:37.040Z,26.37
2023-01-23T23:48:04.371Z,27.20
2023-01-23T23:50:33.048Z,26.07
2023-01-23T23:53:00.422Z,27.40
2023-01-23T23:55:27.682Z,26.70
2023-01-23T23:57:54.856Z,26.63
